Nearby METAR Reports

 

KEDC - Austin Exec, Texas, USA
Distance from station: SSE 10mi, 17km
Updated: Tue, 19-Nov-2019 9:55pm CST
Clear
Clear
 Wind from S
Wind: S 7 mph , 11 km/h
Temperature: 63°F , 17°C
Dew Point: 55°F , 13°C
Humidity: 77%
Barometer: 29.98 inHg , 1015.2 hPa
Clouds: Clear
Visibility: 10 miles , 16 km
2019/11/20 03:55 KEDC 200355Z AUTO 17006KT 10SM CLR 17/13 A2998 RMK AO2
KGTU - Georgetown, Texas, USA
Distance from station: NNW 11mi, 17km
Updated: Tue, 19-Nov-2019 9:56pm CST
Clear
Clear
 Wind from SSE
Wind: SSE 8 mph , 13 km/h
Temperature: 64°F , 18°C
Dew Point: 54°F , 12°C
Humidity: 68%
Barometer: 29.98 inHg , 1015.2 hPa
Clouds: Clear
Visibility: 10 miles , 16 km
2019/11/20 03:56 KGTU 200356Z 16007KT 10SM CLR 18/12 A2998 RMK AO2 SLP149 T01780122
 
KATT - Austin/Mabry, Texas, USA
Distance from station: SSW 18mi, 30km
Updated: Tue, 19-Nov-2019 9:51pm CST
Clear
Clear
 Wind from SSE
Wind: SSE 6 mph , 9 km/h
Temperature: 64°F , 18°C
Dew Point: 55°F , 13°C
Humidity: 73%
Barometer: 29.98 inHg , 1015.2 hPa
Clouds: Clear
Visibility: 10 miles , 16 km
2019/11/20 03:51 KATT 200351Z AUTO 16005KT 10SM CLR 18/13 A2998 RMK AO2 SLP145 T01830133 $
KRYW - Lago Vista, Texas, USA
Distance from station: W 22mi, 35km
Updated: Tue, 19-Nov-2019 9:55pm CST
Clear
Clear
 Wind from SSE
Wind: SSE 8 mph , 13 km/h
Temperature: 63°F , 17°C
Dew Point: 55°F , 13°C
Humidity: 77%
Barometer: 29.98 inHg , 1015.2 hPa
Clouds: Clear
Visibility: 10 miles , 16 km
2019/11/20 03:55 KRYW 200355Z AUTO 16007KT 10SM CLR 17/13 A2998 RMK AO2 T01680129
 
KAUS - Austin, Texas, USA
Distance from station: S 25mi, 41km
Updated: Tue, 19-Nov-2019 9:53pm CST
Few Clouds
Few Clouds
 Wind from S
Wind: S 5 mph , 7 km/h
Temperature: 61°F , 16°C
Dew Point: 55°F , 13°C
Humidity: 83%
Barometer: 29.97 inHg , 1014.9 hPa
Clouds: Few Clouds
Visibility: 10 miles , 16 km
Cloud details: Few Clouds 9500 ft
2019/11/20 03:53 KAUS 200353Z 17004KT 10SM FEW095 16/13 A2997 RMK AO2 SLP144 T01610133
KILE - Killeen Muni, Texas, USA
Distance from station: N 36mi, 58km
Updated: Tue, 19-Nov-2019 9:56pm CST
Clear
Clear
 Wind from SSE
Wind: SSE 12 mph , 19 km/h
Temperature: 61°F , 16°C
Dew Point: 52°F , 11°C
Humidity: 72%
Barometer: 29.96 inHg , 1014.6 hPa
Clouds: Clear
Visibility: 10 miles , 16 km
2019/11/20 03:56 KILE 200356Z AUTO 16010KT 10SM CLR 16/11 A2996 RMK AO2 SLP136 T01610111
 
KGRK - Gray/Ft Hood, Texas, USA
Distance from station: NNW 38mi, 62km
Updated: Tue, 19-Nov-2019 9:58pm CST
Clear
Clear
 Wind from SSE
Wind: SSE 10 mph , 17 km/h
Temperature: 61°F , 16°C
Dew Point: 52°F , 11°C
Humidity: 72%
Barometer: 29.94 inHg , 1013.9 hPa
Clouds: Clear
Visibility: 10 miles , 16 km
2019/11/20 03:58 KGRK 200358Z AUTO 16009KT 10SM CLR 16/11 A2994 RMK AO2 SLP133 T01620109
KBMQ - Burnet, Texas, USA
Distance from station: WNW 39mi, 64km
Updated: Tue, 19-Nov-2019 9:53pm CST

 
Barometer: 29.97 inHg , 1014.9 hPa
2019/11/20 03:53 KBMQ 200353Z AUTO A2997 RMK AO2 SLPNO PWINO FZRANO $
 
KHLR - Ft Hood/Killeen, Texas, USA
Distance from station: N 41mi, 66km
Updated: Tue, 19-Nov-2019 9:58pm CST
Clear
Clear
 Wind from SSE
Wind: SSE 10 mph , 17 km/h
Temperature: 63°F , 17°C
Dew Point: 52°F , 11°C
Humidity: 68%
Barometer: 29.95 inHg , 1014.2 hPa
Clouds: Clear
Visibility: 10 miles , 16 km
2019/11/20 03:58 KHLR 200358Z AUTO 15009KT 10SM CLR 17/11 A2995 RMK AO2 SLP135 T01670109
KTPL - Temple/Miller, Texas, USA
Distance from station: NNE 42mi, 68km
Updated: Tue, 19-Nov-2019 9:51pm CST
Clear
Clear
 Wind from SSE
Wind: SSE 15 mph , 24 km/h
Temperature: 63°F , 17°C
Dew Point: 54°F , 12°C
Humidity: 73%
Barometer: 29.96 inHg , 1014.6 hPa
Clouds: Clear
Visibility: 10 miles , 16 km
2019/11/20 03:51 KTPL 200351Z AUTO 16013KT 10SM CLR 17/12 A2996 RMK AO2 SLP138 T01720122
 
KT35 - Cameron, Texas, USA
Distance from station: ENE 45mi, 72km
Updated: Tue, 19-Nov-2019 9:55pm CST
Clear
Clear
 Wind from S
Wind: S 9 mph , 15 km/h
Temperature: 64°F , 18°C
Dew Point: 54°F , 12°C
Humidity: 68%
Barometer: 29.97 inHg , 1014.9 hPa
Clouds: Clear
Visibility: 10 miles , 16 km
2019/11/20 03:55 KT35 200355Z AUTO 17008KT 10SM CLR 18/12 A2997 RMK AO2 T01750123
KDZB - Horseshoe Bay, Texas, USA
Distance from station: W 45mi, 73km
Updated: Tue, 19-Nov-2019 9:58pm CST
Clear
Clear
 Wind from SE
Wind: SE 6 mph , 9 km/h
Temperature: 63°F , 17°C
Dew Point: 54°F , 12°C
Humidity: 73%
Barometer: 29.95 inHg , 1014.2 hPa
Clouds: Clear
Visibility: 10 miles , 16 km
2019/11/20 03:58 KDZB 200358Z AUTO 13005KT 10SM CLR 17/12 A2995 RMK AO2
 
KGYB - Giddings-Lee, Texas, USA
Distance from station: SE 45mi, 73km
Updated: Tue, 19-Nov-2019 9:55pm CST
Partly cloudy
Partly cloudy
 Wind from calm
Wind: Calm
Temperature: 64°F , 18°C
Dew Point: 59°F , 15°C
Humidity: 83%
Barometer: 29.99 inHg , 1015.6 hPa
Clouds: Partly cloudy
Visibility: 10 miles , 16 km
Cloud details: Partly cloudy 2000 ft
2019/11/20 03:55 KGYB 200355Z AUTO 00000KT 10SM SCT020 18/15 A2999 RMK AO2 T01750149
KHYI - San Marcos, Texas, USA
Distance from station: SSW 48mi, 78km
Updated: Tue, 19-Nov-2019 9:56pm CST
Partly cloudy
Partly cloudy
 Wind from SSE
Wind: SSE 7 mph , 11 km/h
Temperature: 59°F , 15°C
Dew Point: 54°F , 12°C
Humidity: 82%
Barometer: 29.98 inHg , 1015.2 hPa
Clouds: Partly cloudy
Visibility: 10 miles , 16 km
Cloud details: Partly cloudy 1800 ft
2019/11/20 03:56 KHYI 200356Z AUTO 16006KT 10SM SCT018 15/12 A2998 RMK AO2 SLP147 T01500122
 
KLZZ - Lampasas, Texas, USA
Distance from station: NW 52mi, 84km
Updated: Tue, 19-Nov-2019 9:55pm CST
Clear
Clear
 Wind from SSW
Wind: SSW 3 mph , 6 km/h
Temperature: 59°F , 15°C
Dew Point: 52°F , 11°C
Humidity: 77%
Barometer: 29.94 inHg , 1013.9 hPa
Clouds: Clear
Visibility: 10 miles , 16 km
2019/11/20 03:55 KLZZ 200355Z AUTO 20003KT 10SM CLR 15/11 A2994 RMK AO2 T01490110
KRWV - Caldwell, Texas, USA
Distance from station: E 54mi, 87km
Updated: Tue, 19-Nov-2019 9:55pm CST
Clear
Clear
 Wind from S
Wind: S 9 mph , 15 km/h
Temperature: 61°F , 16°C
Dew Point: 55°F , 13°C
Humidity: 83%
Barometer: 29.99 inHg , 1015.6 hPa
Clouds: Clear
Visibility: 10 miles , 16 km
2019/11/20 03:55 KRWV 200355Z AUTO 17008KT 10SM CLR 16/13 A2999 RMK AO2 T01550132
 
K3T5 - La Grange, Texas, USA
Distance from station: SE 59mi, 95km
Updated: Tue, 19-Nov-2019 9:55pm CST
Mostly cloudy
Mostly cloudy
 Wind from SSE
Wind: SSE 5 mph , 7 km/h
Temperature: 63°F , 17°C
Dew Point: 63°F , 17°C
Humidity: 100%
Barometer: 29.97 inHg , 1014.9 hPa
Clouds: Mostly cloudy
Visibility: 10 miles , 16 km
Cloud details: Partly cloudy 2500 ft
Mostly cloudy 3200 ft
2019/11/20 03:55 K3T5 200355Z AUTO 16004KT 10SM SCT025 BKN032 17/17 A2997 RMK AO2 T01720165
KGOP - Gatesville, Texas, USA
Distance from station: N 61mi, 99km
Updated: Tue, 19-Nov-2019 9:55pm CST
Clear
Clear
 Wind from SE
Wind: SE 5 mph , 7 km/h
Temperature: 59°F , 15°C
Dew Point: 50°F , 10°C
Humidity: 72%
Barometer: 29.96 inHg , 1014.6 hPa
Clouds: Clear
Visibility: 10 miles , 16 km
2019/11/20 03:55 KGOP 200355Z AUTO 13004KT 10SM CLR 15/10 A2996 RMK AO2
 
KLHB - Hearne Muni, Texas, USA
Distance from station: ENE 63mi, 101km
Updated: Tue, 19-Nov-2019 9:55pm CST
Clear
Clear
 Wind from SE
Wind: SE 5 mph , 7 km/h
Temperature: 61°F , 16°C
Dew Point: 54°F , 12°C
Humidity: 77%
Barometer: 29.99 inHg , 1015.6 hPa
Clouds: Clear
Visibility: 10 miles , 16 km
2019/11/20 03:55 KLHB 200355Z AUTO 14004KT 10SM CLR 16/12 A2999 RMK AO2 T01580115
KBAZ - New Braunfels, Texas, USA
Distance from station: SSW 63mi, 102km
Updated: Tue, 19-Nov-2019 9:51pm CST
Few Clouds
Few Clouds
 Wind from S
Wind: S 7 mph , 11 km/h
Temperature: 59°F , 15°C
Dew Point: 54°F , 12°C
Humidity: 82%
Barometer: 29.96 inHg , 1014.6 hPa
Clouds: Few Clouds
Visibility: 10 miles , 16 km
Cloud details: Few Clouds 1700 ft
2019/11/20 03:51 KBAZ 200351Z AUTO 17006KT 10SM FEW017 15/12 A2996 RMK AO2 SLP142 T01500122